Huvudsida
METAR-TAF:

METAR-TAF

Flygplatser :

Tiranas internationella flygplats Moder Teresa

Tirana, Albanien

latitud: 41-20N, longitud: 019-47E, höjd: 89 m

Aktuellt väderrapport

Denna rapport gjordes för 19 minuter sedan, klockan 04:50 UTC
Vind 5 kt från syd/sydost
Temperatur 5°C
Fuktighet 87%
Tryck 1025 hPa
Sikt 10 km eller mer
Inga moln under 1 500 m eller inga cumulonimbus

METAR: LATI 160450Z 16005KT CAVOK 05/03 Q1025 NOSIG

Tid: 06:09 (05:09 UTC)

Väderprognos

Denna rapport gjordes för 6 timmar och 9 minuter sedan, klockan 23:00 UTC
Prognos gäller från 16 kl. 00 UTC till 16 kl. 24 UTC
Vind 5 kt varierande vindriktning
Sikt 10 km eller mer
Inga moln under 1 500 m eller inga cumulonimbus

TAF: LATI 152300Z 1600/1624 VRB05KT CAVOK TX20/1612Z TN03/1605Z

Aktuella väderrapporter och prognoser från 4000 flygplatser (METAR- och TAF-rapporter).

De tillgängliga stationerna syns som gula och röda prickar på kartan.

För musen över prickarna för att se namnen på stationerna.

Klicka sedan för att få väderrapporter och prognoser.

För att ändra kartan: Klicka på de gröna knapparna med ett svart kors på för att zooma in; den gröna knappen med ett streck på för att zooma ut; eller på de gröna pilarna för angränsande kartor.


METAR-TAF: